sensor_id;sensor_type;location;lat;lon;timestamp;P1;durP1;ratioP1;P2;durP2;ratioP2
13651;SDS011;6899;51.546;6.912;2022-09-28T00:01:19;14.48;;;10.43;;
13651;SDS011;6899;51.546;6.912;2022-09-28T00:03:47;14.70;;;10.10;;
13651;SDS011;6899;51.546;6.912;2022-09-28T00:06:16;15.93;;;11.27;;
13651;SDS011;6899;51.546;6.912;2022-09-28T00:08:47;13.45;;;9.55;;
13651;SDS011;6899;51.546;6.912;2022-09-28T00:11:16;19.98;;;10.50;;
13651;SDS011;6899;51.546;6.912;2022-09-28T00:13:47;17.00;;;10.00;;
13651;SDS011;6899;51.546;6.912;2022-09-28T00:16:17;15.40;;;9.38;;
13651;SDS011;6899;51.546;6.912;2022-09-28T00:18:46;14.68;;;9.45;;
13651;SDS011;6899;51.546;6.912;2022-09-28T00:21:16;18.00;;;10.00;;
13651;SDS011;6899;51.546;6.912;2022-09-28T00:24:02;15.00;;;9.20;;
13651;SDS011;6899;51.546;6.912;2022-09-28T00:26:44;13.50;;;8.23;;
13651;SDS011;6899;51.546;6.912;2022-09-28T00:29:14;14.75;;;9.27;;
13651;SDS011;6899;51.546;6.912;2022-09-28T00:31:43;15.73;;;8.80;;
13651;SDS011;6899;51.546;6.912;2022-09-28T00:34:11;12.63;;;8.98;;
13651;SDS011;6899;51.546;6.912;2022-09-28T00:36:41;13.55;;;8.25;;
13651;SDS011;6899;51.546;6.912;2022-09-28T00:39:17;13.63;;;8.80;;
13651;SDS011;6899;51.546;6.912;2022-09-28T00:41:44;11.60;;;7.10;;
13651;SDS011;6899;51.546;6.912;2022-09-28T00:47:14;13.95;;;8.50;;
13651;SDS011;6899;51.546;6.912;2022-09-28T00:50:02;12.35;;;7.75;;
13651;SDS011;6899;51.546;6.912;2022-09-28T00:52:34;14.07;;;8.52;;
13651;SDS011;6899;51.546;6.912;2022-09-28T00:55:12;12.20;;;7.70;;
13651;SDS011;6899;51.546;6.912;2022-09-28T00:57:43;13.43;;;7.50;;
13651;SDS011;6899;51.546;6.912;2022-09-28T01:00:14;14.68;;;10.20;;
13651;SDS011;6899;51.546;6.912;2022-09-28T01:02:41;14.75;;;9.30;;
13651;SDS011;6899;51.546;6.912;2022-09-28T01:05:10;13.68;;;9.20;;
13651;SDS011;6899;51.546;6.912;2022-09-28T01:07:37;11.50;;;6.60;;
13651;SDS011;6899;51.546;6.912;2022-09-28T01:10:05;12.18;;;7.65;;
13651;SDS011;6899;51.546;6.912;2022-09-28T01:12:34;18.20;;;11.55;;
13651;SDS011;6899;51.546;6.912;2022-09-28T01:15:02;14.40;;;10.27;;
13651;SDS011;6899;51.546;6.912;2022-09-28T01:17:35;10.95;;;8.43;;
13651;SDS011;6899;51.546;6.912;2022-09-28T01:20:32;13.93;;;9.13;;
13651;SDS011;6899;51.546;6.912;2022-09-28T01:26:31;15.90;;;11.27;;
13651;SDS011;6899;51.546;6.912;2022-09-28T01:29:18;14.68;;;8.57;;
13651;SDS011;6899;51.546;6.912;2022-09-28T01:31:55;13.63;;;8.90;;
13651;SDS011;6899;51.546;6.912;2022-09-28T01:34:35;19.52;;;12.45;;
13651;SDS011;6899;51.546;6.912;2022-09-28T01:37:05;17.90;;;11.32;;
13651;SDS011;6899;51.546;6.912;2022-09-28T01:39:40;14.50;;;9.95;;
13651;SDS011;6899;51.546;6.912;2022-09-28T01:42:15;19.65;;;12.85;;
13651;SDS011;6899;51.546;6.912;2022-09-28T01:44:47;21.00;;;13.35;;
13651;SDS011;6899;51.546;6.912;2022-09-28T01:47:18;16.20;;;10.40;;
13651;SDS011;6899;51.546;6.912;2022-09-28T01:49:48;15.80;;;10.10;;
13651;SDS011;6899;51.546;6.912;2022-09-28T01:52:20;24.02;;;15.00;;
13651;SDS011;6899;51.546;6.912;2022-09-28T01:54:53;21.88;;;13.60;;
13651;SDS011;6899;51.546;6.912;2022-09-28T01:57:25;24.10;;;15.18;;
13651;SDS011;6899;51.546;6.912;2022-09-28T01:59:59;20.95;;;13.73;;
13651;SDS011;6899;51.546;6.912;2022-09-28T02:02:30;24.60;;;15.63;;
13651;SDS011;6899;51.546;6.912;2022-09-28T02:05:02;22.75;;;15.57;;
13651;SDS011;6899;51.546;6.912;2022-09-28T02:07:33;27.05;;;15.20;;
13651;SDS011;6899;51.546;6.912;2022-09-28T02:10:05;29.95;;;17.25;;
13651;SDS011;6899;51.546;6.912;2022-09-28T02:12:49;29.52;;;17.75;;
13651;SDS011;6899;51.546;6.912;2022-09-28T02:15:19;27.65;;;17.73;;
13651;SDS011;6899;51.546;6.912;2022-09-28T02:17:54;29.92;;;18.95;;
13651;SDS011;6899;51.546;6.912;2022-09-28T02:20:22;33.03;;;20.35;;
13651;SDS011;6899;51.546;6.912;2022-09-28T02:22:50;32.35;;;20.92;;
13651;SDS011;6899;51.546;6.912;2022-09-28T02:25:22;33.35;;;20.92;;
13651;SDS011;6899;51.546;6.912;2022-09-28T02:27:55;37.58;;;21.35;;
13651;SDS011;6899;51.546;6.912;2022-09-28T02:30:25;34.28;;;20.75;;
13651;SDS011;6899;51.546;6.912;2022-09-28T02:32:56;32.83;;;21.20;;
13651;SDS011;6899;51.546;6.912;2022-09-28T02:35:29;34.35;;;20.80;;
13651;SDS011;6899;51.546;6.912;2022-09-28T02:37:57;37.42;;;22.42;;
13651;SDS011;6899;51.546;6.912;2022-09-28T02:40:25;37.78;;;22.17;;
13651;SDS011;6899;51.546;6.912;2022-09-28T02:42:59;35.47;;;22.27;;
13651;SDS011;6899;51.546;6.912;2022-09-28T02:45:35;37.42;;;22.02;;
13651;SDS011;6899;51.546;6.912;2022-09-28T02:48:23;31.40;;;18.45;;
13651;SDS011;6899;51.546;6.912;2022-09-28T02:51:02;35.97;;;21.08;;
13651;SDS011;6899;51.546;6.912;2022-09-28T02:53:52;29.98;;;18.52;;
13651;SDS011;6899;51.546;6.912;2022-09-28T02:56:51;31.92;;;18.70;;
13651;SDS011;6899;51.546;6.912;2022-09-28T02:59:34;32.10;;;20.10;;
13651;SDS011;6899;51.546;6.912;2022-09-28T03:02:17;27.38;;;16.60;;
13651;SDS011;6899;51.546;6.912;2022-09-28T03:04:56;31.85;;;20.48;;
13651;SDS011;6899;51.546;6.912;2022-09-28T03:07:35;38.42;;;22.95;;
13651;SDS011;6899;51.546;6.912;2022-09-28T03:10:21;38.20;;;22.83;;
13651;SDS011;6899;51.546;6.912;2022-09-28T03:12:55;37.70;;;23.17;;
13651;SDS011;6899;51.546;6.912;2022-09-28T03:15:26;40.47;;;22.95;;
13651;SDS011;6899;51.546;6.912;2022-09-28T03:17:54;35.05;;;21.70;;
13651;SDS011;6899;51.546;6.912;2022-09-28T03:20:22;41.00;;;22.63;;
13651;SDS011;6899;51.546;6.912;2022-09-28T03:22:49;35.78;;;21.52;;
13651;SDS011;6899;51.546;6.912;2022-09-28T03:25:20;31.58;;;19.50;;
13651;SDS011;6899;51.546;6.912;2022-09-28T03:27:48;36.58;;;21.27;;
13651;SDS011;6899;51.546;6.912;2022-09-28T03:30:15;26.30;;;17.02;;
13651;SDS011;6899;51.546;6.912;2022-09-28T03:32:44;48.47;;;26.05;;
13651;SDS011;6899;51.546;6.912;2022-09-28T03:35:11;46.83;;;24.13;;
13651;SDS011;6899;51.546;6.912;2022-09-28T03:37:37;49.45;;;28.15;;
13651;SDS011;6899;51.546;6.912;2022-09-28T03:40:05;45.33;;;24.75;;
13651;SDS011;6899;51.546;6.912;2022-09-28T03:42:34;50.90;;;26.83;;
13651;SDS011;6899;51.546;6.912;2022-09-28T03:45:02;52.55;;;27.90;;
13651;SDS011;6899;51.546;6.912;2022-09-28T03:47:33;44.50;;;25.67;;
13651;SDS011;6899;51.546;6.912;2022-09-28T03:50:01;48.03;;;25.33;;
13651;SDS011;6899;51.546;6.912;2022-09-28T03:52:29;54.78;;;29.55;;
13651;SDS011;6899;51.546;6.912;2022-09-28T03:55:00;52.05;;;28.67;;
13651;SDS011;6899;51.546;6.912;2022-09-28T03:57:27;51.47;;;27.10;;
13651;SDS011;6899;51.546;6.912;2022-09-28T03:59:55;50.13;;;29.13;;
13651;SDS011;6899;51.546;6.912;2022-09-28T04:02:22;53.88;;;29.08;;
13651;SDS011;6899;51.546;6.912;2022-09-28T04:04:52;47.05;;;25.58;;
13651;SDS011;6899;51.546;6.912;2022-09-28T04:07:20;55.72;;;29.33;;
13651;SDS011;6899;51.546;6.912;2022-09-28T04:09:47;40.53;;;24.15;;
13651;SDS011;6899;51.546;6.912;2022-09-28T04:12:13;61.10;;;31.63;;
13651;SDS011;6899;51.546;6.912;2022-09-28T04:14:41;57.42;;;30.40;;
13651;SDS011;6899;51.546;6.912;2022-09-28T04:17:20;42.75;;;24.75;;
13651;SDS011;6899;51.546;6.912;2022-09-28T04:19:50;41.20;;;24.67;;
13651;SDS011;6899;51.546;6.912;2022-09-28T04:22:17;56.80;;;31.75;;
13651;SDS011;6899;51.546;6.912;2022-09-28T04:24:45;57.78;;;31.75;;
13651;SDS011;6899;51.546;6.912;2022-09-28T04:27:12;61.55;;;33.00;;
13651;SDS011;6899;51.546;6.912;2022-09-28T04:29:56;41.38;;;24.02;;
13651;SDS011;6899;51.546;6.912;2022-09-28T04:32:23;57.00;;;30.70;;
13651;SDS011;6899;51.546;6.912;2022-09-28T04:34:50;59.67;;;33.55;;
13651;SDS011;6899;51.546;6.912;2022-09-28T04:37:17;46.78;;;28.10;;
13651;SDS011;6899;51.546;6.912;2022-09-28T04:39:46;52.10;;;31.50;;
13651;SDS011;6899;51.546;6.912;2022-09-28T04:42:13;59.40;;;33.65;;
13651;SDS011;6899;51.546;6.912;2022-09-28T04:44:39;51.80;;;30.17;;
13651;SDS011;6899;51.546;6.912;2022-09-28T04:47:06;46.50;;;27.88;;
13651;SDS011;6899;51.546;6.912;2022-09-28T04:49:33;53.70;;;32.25;;
13651;SDS011;6899;51.546;6.912;2022-09-28T04:52:02;40.20;;;26.17;;
13651;SDS011;6899;51.546;6.912;2022-09-28T04:54:29;60.92;;;33.20;;
13651;SDS011;6899;51.546;6.912;2022-09-28T04:56:58;41.53;;;24.17;;
13651;SDS011;6899;51.546;6.912;2022-09-28T04:59:25;41.17;;;24.13;;
13651;SDS011;6899;51.546;6.912;2022-09-28T05:01:54;55.13;;;33.03;;
13651;SDS011;6899;51.546;6.912;2022-09-28T05:04:21;47.35;;;30.15;;
13651;SDS011;6899;51.546;6.912;2022-09-28T05:06:48;49.35;;;28.55;;
13651;SDS011;6899;51.546;6.912;2022-09-28T05:09:15;56.17;;;34.65;;
13651;SDS011;6899;51.546;6.912;2022-09-28T05:11:44;45.88;;;26.75;;
13651;SDS011;6899;51.546;6.912;2022-09-28T05:14:13;54.72;;;33.10;;
13651;SDS011;6899;51.546;6.912;2022-09-28T05:16:40;50.05;;;29.98;;
13651;SDS011;6899;51.546;6.912;2022-09-28T05:19:08;47.03;;;28.80;;
13651;SDS011;6899;51.546;6.912;2022-09-28T05:21:35;47.08;;;29.98;;
13651;SDS011;6899;51.546;6.912;2022-09-28T05:24:03;60.55;;;36.53;;
13651;SDS011;6899;51.546;6.912;2022-09-28T05:26:31;64.75;;;37.42;;
13651;SDS011;6899;51.546;6.912;2022-09-28T05:28:58;54.55;;;33.75;;
13651;SDS011;6899;51.546;6.912;2022-09-28T05:31:29;59.33;;;35.80;;
13651;SDS011;6899;51.546;6.912;2022-09-28T05:33:56;55.10;;;32.83;;
13651;SDS011;6899;51.546;6.912;2022-09-28T05:36:24;55.22;;;33.83;;
13651;SDS011;6899;51.546;6.912;2022-09-28T05:38:52;46.40;;;28.77;;
13651;SDS011;6899;51.546;6.912;2022-09-28T05:41:19;50.10;;;29.58;;
13651;SDS011;6899;51.546;6.912;2022-09-28T05:43:45;54.30;;;34.13;;
13651;SDS011;6899;51.546;6.912;2022-09-28T05:46:16;58.05;;;35.15;;
13651;SDS011;6899;51.546;6.912;2022-09-28T05:48:49;58.33;;;33.33;;
13651;SDS011;6899;51.546;6.912;2022-09-28T05:51:16;63.92;;;37.15;;
13651;SDS011;6899;51.546;6.912;2022-09-28T05:53:44;60.15;;;36.38;;
13651;SDS011;6899;51.546;6.912;2022-09-28T05:56:11;40.80;;;25.08;;
13651;SDS011;6899;51.546;6.912;2022-09-28T05:58:38;54.33;;;33.47;;
13651;SDS011;6899;51.546;6.912;2022-09-28T06:01:05;57.42;;;34.28;;
13651;SDS011;6899;51.546;6.912;2022-09-28T06:03:32;57.00;;;33.85;;
13651;SDS011;6899;51.546;6.912;2022-09-28T06:06:03;58.08;;;34.00;;
13651;SDS011;6899;51.546;6.912;2022-09-28T06:08:30;65.10;;;39.10;;
13651;SDS011;6899;51.546;6.912;2022-09-28T06:10:58;62.67;;;39.08;;
13651;SDS011;6899;51.546;6.912;2022-09-28T06:13:25;62.22;;;36.95;;
13651;SDS011;6899;51.546;6.912;2022-09-28T06:15:52;60.92;;;36.30;;
13651;SDS011;6899;51.546;6.912;2022-09-28T06:18:20;57.00;;;35.13;;
13651;SDS011;6899;51.546;6.912;2022-09-28T06:20:47;63.72;;;36.00;;
13651;SDS011;6899;51.546;6.912;2022-09-28T06:23:18;64.70;;;39.28;;
13651;SDS011;6899;51.546;6.912;2022-09-28T06:25:45;56.50;;;33.85;;
13651;SDS011;6899;51.546;6.912;2022-09-28T06:28:12;62.85;;;38.42;;
13651;SDS011;6899;51.546;6.912;2022-09-28T06:30:40;66.72;;;39.60;;
13651;SDS011;6899;51.546;6.912;2022-09-28T06:33:09;56.03;;;34.85;;
13651;SDS011;6899;51.546;6.912;2022-09-28T06:35:38;63.05;;;39.17;;
13651;SDS011;6899;51.546;6.912;2022-09-28T06:38:05;61.70;;;38.42;;
13651;SDS011;6899;51.546;6.912;2022-09-28T06:40:35;60.55;;;36.28;;
13651;SDS011;6899;51.546;6.912;2022-09-28T06:43:03;67.88;;;37.72;;
13651;SDS011;6899;51.546;6.912;2022-09-28T06:45:34;63.80;;;38.88;;
13651;SDS011;6899;51.546;6.912;2022-09-28T06:48:02;64.10;;;37.20;;
13651;SDS011;6899;51.546;6.912;2022-09-28T06:50:30;61.10;;;37.53;;
13651;SDS011;6899;51.546;6.912;2022-09-28T06:53:00;59.75;;;37.13;;
13651;SDS011;6899;51.546;6.912;2022-09-28T06:55:27;58.45;;;37.60;;
13651;SDS011;6899;51.546;6.912;2022-09-28T06:58:00;54.67;;;34.70;;
13651;SDS011;6899;51.546;6.912;2022-09-28T07:00:29;61.20;;;36.65;;
13651;SDS011;6899;51.546;6.912;2022-09-28T07:03:00;57.90;;;35.15;;
13651;SDS011;6899;51.546;6.912;2022-09-28T07:05:32;55.28;;;35.25;;
13651;SDS011;6899;51.546;6.912;2022-09-28T07:08:04;52.80;;;32.65;;
13651;SDS011;6899;51.546;6.912;2022-09-28T07:10:40;55.78;;;35.35;;
13651;SDS011;6899;51.546;6.912;2022-09-28T07:13:10;55.83;;;35.33;;
13651;SDS011;6899;51.546;6.912;2022-09-28T07:15:38;55.75;;;34.45;;
13651;SDS011;6899;51.546;6.912;2022-09-28T07:18:06;47.83;;;32.03;;
13651;SDS011;6899;51.546;6.912;2022-09-28T07:20:35;49.90;;;33.15;;
13651;SDS011;6899;51.546;6.912;2022-09-28T07:23:05;53.38;;;32.30;;
13651;SDS011;6899;51.546;6.912;2022-09-28T07:25:33;49.97;;;30.73;;
13651;SDS011;6899;51.546;6.912;2022-09-28T07:28:01;49.25;;;31.88;;
13651;SDS011;6899;51.546;6.912;2022-09-28T07:30:32;48.80;;;31.55;;
13651;SDS011;6899;51.546;6.912;2022-09-28T07:33:00;42.63;;;29.90;;
13651;SDS011;6899;51.546;6.912;2022-09-28T07:35:28;45.85;;;29.05;;
13651;SDS011;6899;51.546;6.912;2022-09-28T07:37:56;39.67;;;27.23;;
13651;SDS011;6899;51.546;6.912;2022-09-28T07:40:25;38.00;;;27.00;;
13651;SDS011;6899;51.546;6.912;2022-09-28T07:43:09;38.47;;;26.98;;
13651;SDS011;6899;51.546;6.912;2022-09-28T07:45:38;35.95;;;24.98;;
13651;SDS011;6899;51.546;6.912;2022-09-28T07:48:11;33.88;;;24.45;;
13651;SDS011;6899;51.546;6.912;2022-09-28T07:50:39;33.55;;;26.08;;
13651;SDS011;6899;51.546;6.912;2022-09-28T07:53:06;30.58;;;22.30;;
13651;SDS011;6899;51.546;6.912;2022-09-28T07:55:33;30.70;;;21.98;;
13651;SDS011;6899;51.546;6.912;2022-09-28T07:58:00;30.17;;;22.58;;
13651;SDS011;6899;51.546;6.912;2022-09-28T08:00:27;27.73;;;20.45;;
13651;SDS011;6899;51.546;6.912;2022-09-28T08:02:59;25.98;;;19.52;;
13651;SDS011;6899;51.546;6.912;2022-09-28T08:05:26;25.70;;;18.40;;
13651;SDS011;6899;51.546;6.912;2022-09-28T08:07:55;24.70;;;18.42;;
13651;SDS011;6899;51.546;6.912;2022-09-28T08:10:22;23.58;;;17.38;;
13651;SDS011;6899;51.546;6.912;2022-09-28T08:12:52;22.98;;;17.40;;
13651;SDS011;6899;51.546;6.912;2022-09-28T08:15:20;21.35;;;16.40;;
13651;SDS011;6899;51.546;6.912;2022-09-28T08:17:47;20.13;;;16.17;;
13651;SDS011;6899;51.546;6.912;2022-09-28T08:20:21;18.85;;;14.20;;
13651;SDS011;6899;51.546;6.912;2022-09-28T08:23:05;18.15;;;15.18;;
13651;SDS011;6899;51.546;6.912;2022-09-28T08:25:33;21.88;;;14.90;;
13651;SDS011;6899;51.546;6.912;2022-09-28T08:28:10;18.70;;;14.52;;
13651;SDS011;6899;51.546;6.912;2022-09-28T08:30:37;17.98;;;13.77;;
13651;SDS011;6899;51.546;6.912;2022-09-28T08:33:04;17.80;;;14.43;;
13651;SDS011;6899;51.546;6.912;2022-09-28T08:35:32;17.92;;;14.23;;
13651;SDS011;6899;51.546;6.912;2022-09-28T08:37:59;16.65;;;12.93;;
13651;SDS011;6899;51.546;6.912;2022-09-28T08:40:27;16.88;;;12.40;;
13651;SDS011;6899;51.546;6.912;2022-09-28T08:42:59;14.38;;;11.50;;
13651;SDS011;6899;51.546;6.912;2022-09-28T08:45:30;12.68;;;10.98;;
13651;SDS011;6899;51.546;6.912;2022-09-28T08:48:00;12.68;;;11.35;;
13651;SDS011;6899;51.546;6.912;2022-09-28T08:50:49;12.80;;;10.65;;
13651;SDS011;6899;51.546;6.912;2022-09-28T08:53:31;11.95;;;10.05;;
13651;SDS011;6899;51.546;6.912;2022-09-28T08:56:04;9.98;;;8.98;;
13651;SDS011;6899;51.546;6.912;2022-09-28T08:58:38;10.95;;;8.27;;
13651;SDS011;6899;51.546;6.912;2022-09-28T09:01:10;10.30;;;7.38;;
13651;SDS011;6899;51.546;6.912;2022-09-28T09:03:42;7.72;;;6.88;;
13651;SDS011;6899;51.546;6.912;2022-09-28T09:06:14;7.70;;;6.93;;
13651;SDS011;6899;51.546;6.912;2022-09-28T09:08:48;9.15;;;6.60;;
13651;SDS011;6899;51.546;6.912;2022-09-28T09:11:30;7.18;;;6.50;;
13651;SDS011;6899;51.546;6.912;2022-09-28T09:14:13;6.82;;;5.85;;
13651;SDS011;6899;51.546;6.912;2022-09-28T09:17:00;6.13;;;5.53;;
13651;SDS011;6899;51.546;6.912;2022-09-28T09:19:39;6.72;;;5.63;;
13651;SDS011;6899;51.546;6.912;2022-09-28T09:22:17;9.13;;;5.85;;
13651;SDS011;6899;51.546;6.912;2022-09-28T09:24:57;6.38;;;5.78;;
13651;SDS011;6899;51.546;6.912;2022-09-28T09:27:40;6.80;;;6.00;;
13651;SDS011;6899;51.546;6.912;2022-09-28T09:30:19;7.63;;;6.30;;
13651;SDS011;6899;51.546;6.912;2022-09-28T09:32:52;7.05;;;6.35;;
13651;SDS011;6899;51.546;6.912;2022-09-28T09:35:57;5.50;;;5.10;;
13651;SDS011;6899;51.546;6.912;2022-09-28T09:38:50;6.63;;;5.35;;
13651;SDS011;6899;51.546;6.912;2022-09-28T09:41:30;5.88;;;5.38;;
13651;SDS011;6899;51.546;6.912;2022-09-28T09:44:16;5.97;;;5.38;;
13651;SDS011;6899;51.546;6.912;2022-09-28T09:46:58;5.93;;;5.32;;
13651;SDS011;6899;51.546;6.912;2022-09-28T09:49:33;7.50;;;5.55;;
13651;SDS011;6899;51.546;6.912;2022-09-28T09:52:05;5.90;;;5.30;;
13651;SDS011;6899;51.546;6.912;2022-09-28T09:54:41;6.63;;;5.00;;
13651;SDS011;6899;51.546;6.912;2022-09-28T09:57:13;6.30;;;5.70;;
13651;SDS011;6899;51.546;6.912;2022-09-28T09:59:42;5.40;;;4.80;;
13651;SDS011;6899;51.546;6.912;2022-09-28T10:02:21;5.85;;;5.25;;
13651;SDS011;6899;51.546;6.912;2022-09-28T10:04:50;7.22;;;5.55;;
13651;SDS011;6899;51.546;6.912;2022-09-28T10:07:22;4.53;;;4.10;;
13651;SDS011;6899;51.546;6.912;2022-09-28T10:09:52;4.68;;;3.75;;
13651;SDS011;6899;51.546;6.912;2022-09-28T10:12:22;5.22;;;3.72;;
13651;SDS011;6899;51.546;6.912;2022-09-28T10:14:50;4.53;;;4.03;;
13651;SDS011;6899;51.546;6.912;2022-09-28T10:17:17;4.72;;;3.83;;
13651;SDS011;6899;51.546;6.912;2022-09-28T10:19:51;5.25;;;3.90;;
13651;SDS011;6899;51.546;6.912;2022-09-28T10:22:21;4.03;;;3.72;;
13651;SDS011;6899;51.546;6.912;2022-09-28T10:24:52;5.57;;;4.13;;
13651;SDS011;6899;51.546;6.912;2022-09-28T10:27:22;6.50;;;4.45;;
13651;SDS011;6899;51.546;6.912;2022-09-28T10:29:53;4.70;;;4.20;;
13651;SDS011;6899;51.546;6.912;2022-09-28T10:32:23;5.57;;;4.70;;
13651;SDS011;6899;51.546;6.912;2022-09-28T10:34:52;5.47;;;4.40;;
13651;SDS011;6899;51.546;6.912;2022-09-28T10:37:44;6.40;;;5.55;;
13651;SDS011;6899;51.546;6.912;2022-09-28T10:40:24;5.50;;;5.00;;
13651;SDS011;6899;51.546;6.912;2022-09-28T10:42:58;8.23;;;6.68;;
13651;SDS011;6899;51.546;6.912;2022-09-28T10:45:26;6.35;;;4.72;;
13651;SDS011;6899;51.546;6.912;2022-09-28T10:48:00;5.35;;;4.80;;
13651;SDS011;6899;51.546;6.912;2022-09-28T10:50:30;5.85;;;4.90;;
13651;SDS011;6899;51.546;6.912;2022-09-28T10:53:09;6.82;;;4.50;;
13651;SDS011;6899;51.546;6.912;2022-09-28T10:55:38;5.20;;;4.80;;
13651;SDS011;6899;51.546;6.912;2022-09-28T10:58:16;5.50;;;3.75;;
13651;SDS011;6899;51.546;6.912;2022-09-28T11:00:51;4.00;;;3.65;;
13651;SDS011;6899;51.546;6.912;2022-09-28T11:03:24;6.00;;;3.30;;
13651;SDS011;6899;51.546;6.912;2022-09-28T11:05:54;4.30;;;2.80;;
13651;SDS011;6899;51.546;6.912;2022-09-28T11:08:24;4.00;;;2.30;;
13651;SDS011;6899;51.546;6.912;2022-09-28T11:11:05;3.85;;;2.35;;
13651;SDS011;6899;51.546;6.912;2022-09-28T11:13:40;3.15;;;2.20;;
13651;SDS011;6899;51.546;6.912;2022-09-28T11:16:17;2.17;;;1.90;;
13651;SDS011;6899;51.546;6.912;2022-09-28T11:18:46;2.20;;;1.50;;
13651;SDS011;6899;51.546;6.912;2022-09-28T11:21:13;2.92;;;1.58;;
13651;SDS011;6899;51.546;6.912;2022-09-28T11:23:42;2.75;;;1.50;;
13651;SDS011;6899;51.546;6.912;2022-09-28T11:26:23;2.60;;;1.55;;
13651;SDS011;6899;51.546;6.912;2022-09-28T11:28:50;2.75;;;1.60;;
13651;SDS011;6899;51.546;6.912;2022-09-28T11:31:22;1.50;;;1.40;;
13651;SDS011;6899;51.546;6.912;2022-09-28T11:34:00;2.22;;;1.50;;
13651;SDS011;6899;51.546;6.912;2022-09-28T11:39:26;2.30;;;2.10;;
13651;SDS011;6899;51.546;6.912;2022-09-28T11:42:03;4.15;;;2.20;;
13651;SDS011;6899;51.546;6.912;2022-09-28T11:44:39;3.42;;;2.85;;
13651;SDS011;6899;51.546;6.912;2022-09-28T11:47:24;4.40;;;2.70;;
13651;SDS011;6899;51.546;6.912;2022-09-28T11:50:04;3.65;;;2.58;;
13651;SDS011;6899;51.546;6.912;2022-09-28T11:52:40;4.32;;;3.03;;
13651;SDS011;6899;51.546;6.912;2022-09-28T11:55:20;6.68;;;3.33;;
13651;SDS011;6899;51.546;6.912;2022-09-28T11:57:55;4.75;;;2.97;;
13651;SDS011;6899;51.546;6.912;2022-09-28T12:00:27;3.42;;;2.92;;
13651;SDS011;6899;51.546;6.912;2022-09-28T12:03:04;3.00;;;2.70;;
13651;SDS011;6899;51.546;6.912;2022-09-28T12:05:33;5.28;;;3.38;;
13651;SDS011;6899;51.546;6.912;2022-09-28T12:08:06;4.88;;;3.47;;
13651;SDS011;6899;51.546;6.912;2022-09-28T12:10:39;4.10;;;3.00;;
13651;SDS011;6899;51.546;6.912;2022-09-28T12:13:15;4.65;;;4.25;;
13651;SDS011;6899;51.546;6.912;2022-09-28T12:15:46;4.35;;;3.95;;
13651;SDS011;6899;51.546;6.912;2022-09-28T12:18:17;3.97;;;3.55;;
13651;SDS011;6899;51.546;6.912;2022-09-28T12:20:50;5.72;;;3.50;;
13651;SDS011;6899;51.546;6.912;2022-09-28T12:23:21;7.78;;;6.97;;
13651;SDS011;6899;51.546;6.912;2022-09-28T12:25:56;5.05;;;4.13;;
13651;SDS011;6899;51.546;6.912;2022-09-28T12:28:30;4.97;;;3.80;;
13651;SDS011;6899;51.546;6.912;2022-09-28T12:31:08;3.45;;;3.00;;
13651;SDS011;6899;51.546;6.912;2022-09-28T12:33:41;4.13;;;2.85;;
13651;SDS011;6899;51.546;6.912;2022-09-28T12:36:15;5.07;;;2.97;;
13651;SDS011;6899;51.546;6.912;2022-09-28T12:38:59;4.47;;;3.10;;
13651;SDS011;6899;51.546;6.912;2022-09-28T12:41:41;3.90;;;2.78;;
13651;SDS011;6899;51.546;6.912;2022-09-28T12:44:22;3.38;;;2.42;;
13651;SDS011;6899;51.546;6.912;2022-09-28T12:47:02;6.25;;;2.50;;
13651;SDS011;6899;51.546;6.912;2022-09-28T12:49:52;4.25;;;3.85;;
13651;SDS011;6899;51.546;6.912;2022-09-28T12:52:31;4.63;;;2.90;;
13651;SDS011;6899;51.546;6.912;2022-09-28T12:55:06;3.67;;;2.50;;
13651;SDS011;6899;51.546;6.912;2022-09-28T12:57:48;4.03;;;3.72;;
13651;SDS011;6899;51.546;6.912;2022-09-28T13:00:27;2.95;;;2.67;;
13651;SDS011;6899;51.546;6.912;2022-09-28T13:06:15;3.75;;;2.35;;
13651;SDS011;6899;51.546;6.912;2022-09-28T13:09:02;3.90;;;2.38;;
13651;SDS011;6899;51.546;6.912;2022-09-28T13:11:52;4.72;;;2.97;;
13651;SDS011;6899;51.546;6.912;2022-09-28T13:14:52;5.60;;;2.63;;
13651;SDS011;6899;51.546;6.912;2022-09-28T13:20:56;4.22;;;3.75;;
13651;SDS011;6899;51.546;6.912;2022-09-28T13:23:33;3.83;;;2.17;;
13651;SDS011;6899;51.546;6.912;2022-09-28T13:26:13;2.58;;;1.90;;
13651;SDS011;6899;51.546;6.912;2022-09-28T13:28:45;5.35;;;4.63;;
13651;SDS011;6899;51.546;6.912;2022-09-28T13:31:16;4.00;;;1.90;;
13651;SDS011;6899;51.546;6.912;2022-09-28T13:33:49;2.30;;;2.10;;
13651;SDS011;6899;51.546;6.912;2022-09-28T13:36:35;2.53;;;2.17;;
13651;SDS011;6899;51.546;6.912;2022-09-28T13:42:03;2.08;;;1.90;;
13651;SDS011;6899;51.546;6.912;2022-09-28T13:44:46;2.72;;;1.70;;
13651;SDS011;6899;51.546;6.912;2022-09-28T13:47:35;3.00;;;1.60;;
13651;SDS011;6899;51.546;6.912;2022-09-28T13:50:32;4.00;;;1.90;;
13651;SDS011;6899;51.546;6.912;2022-09-28T13:53:11;2.65;;;1.70;;
13651;SDS011;6899;51.546;6.912;2022-09-28T13:55:50;1.80;;;1.70;;
13651;SDS011;6899;51.546;6.912;2022-09-28T13:58:23;2.20;;;2.00;;
13651;SDS011;6899;51.546;6.912;2022-09-28T14:00:54;2.45;;;1.80;;
13651;SDS011;6899;51.546;6.912;2022-09-28T14:03:40;1.75;;;1.60;;
13651;SDS011;6899;51.546;6.912;2022-09-28T14:06:23;2.60;;;1.35;;
13651;SDS011;6899;51.546;6.912;2022-09-28T14:11:55;3.53;;;2.85;;
13651;SDS011;6899;51.546;6.912;2022-09-28T14:14:27;3.10;;;2.10;;
13651;SDS011;6899;51.546;6.912;2022-09-28T14:19:58;2.95;;;2.40;;
13651;SDS011;6899;51.546;6.912;2022-09-28T14:22:31;3.35;;;3.10;;
13651;SDS011;6899;51.546;6.912;2022-09-28T14:25:07;4.15;;;3.70;;
13651;SDS011;6899;51.546;6.912;2022-09-28T14:27:39;5.18;;;4.00;;
13651;SDS011;6899;51.546;6.912;2022-09-28T14:30:22;5.00;;;3.92;;
13651;SDS011;6899;51.546;6.912;2022-09-28T14:32:52;4.40;;;4.00;;
13651;SDS011;6899;51.546;6.912;2022-09-28T14:35:29;7.05;;;4.10;;
13651;SDS011;6899;51.546;6.912;2022-09-28T14:38:02;5.72;;;4.60;;
13651;SDS011;6899;51.546;6.912;2022-09-28T14:40:59;5.20;;;4.10;;
13651;SDS011;6899;51.546;6.912;2022-09-28T14:46:40;4.30;;;3.90;;
13651;SDS011;6899;51.546;6.912;2022-09-28T14:52:18;4.93;;;4.45;;
13651;SDS011;6899;51.546;6.912;2022-09-28T14:55:10;5.82;;;5.00;;
13651;SDS011;6899;51.546;6.912;2022-09-28T14:57:40;4.93;;;4.43;;
13651;SDS011;6899;51.546;6.912;2022-09-28T15:00:13;5.47;;;4.85;;
13651;SDS011;6899;51.546;6.912;2022-09-28T15:02:46;6.85;;;4.95;;
13651;SDS011;6899;51.546;6.912;2022-09-28T15:05:17;5.40;;;5.00;;
13651;SDS011;6899;51.546;6.912;2022-09-28T15:07:49;6.43;;;5.05;;
13651;SDS011;6899;51.546;6.912;2022-09-28T15:10:23;5.30;;;4.75;;
13651;SDS011;6899;51.546;6.912;2022-09-28T15:13:00;6.50;;;5.38;;
13651;SDS011;6899;51.546;6.912;2022-09-28T15:15:33;9.05;;;5.80;;
13651;SDS011;6899;51.546;6.912;2022-09-28T15:21:07;5.70;;;4.85;;
13651;SDS011;6899;51.546;6.912;2022-09-28T15:23:35;6.43;;;4.85;;
13651;SDS011;6899;51.546;6.912;2022-09-28T15:26:06;5.10;;;4.60;;
13651;SDS011;6899;51.546;6.912;2022-09-28T15:28:46;6.95;;;5.45;;
13651;SDS011;6899;51.546;6.912;2022-09-28T15:31:15;5.95;;;4.82;;
13651;SDS011;6899;51.546;6.912;2022-09-28T15:33:47;4.85;;;4.45;;
13651;SDS011;6899;51.546;6.912;2022-09-28T15:36:33;6.43;;;4.18;;
13651;SDS011;6899;51.546;6.912;2022-09-28T15:39:03;4.55;;;4.15;;
13651;SDS011;6899;51.546;6.912;2022-09-28T15:41:32;4.78;;;3.83;;
13651;SDS011;6899;51.546;6.912;2022-09-28T15:44:04;5.03;;;3.92;;
13651;SDS011;6899;51.546;6.912;2022-09-28T15:46:40;4.80;;;4.05;;
13651;SDS011;6899;51.546;6.912;2022-09-28T15:49:19;4.97;;;3.60;;
13651;SDS011;6899;51.546;6.912;2022-09-28T15:51:50;5.25;;;3.70;;
13651;SDS011;6899;51.546;6.912;2022-09-28T15:54:21;4.80;;;4.30;;